sensor_id;sensor_type;location;lat;lon;timestamp;P1;durP1;ratioP1;P2;durP2;ratioP2
37955;SDS011;23776;51.592;7.180;2023-03-19T00:02:18;12.27;;;4.45;;
37955;SDS011;23776;51.592;7.180;2023-03-19T00:04:45;9.57;;;4.95;;
37955;SDS011;23776;51.592;7.180;2023-03-19T00:07:11;9.32;;;4.20;;
37955;SDS011;23776;51.592;7.180;2023-03-19T00:09:36;10.50;;;4.57;;
37955;SDS011;23776;51.592;7.180;2023-03-19T00:12:02;16.58;;;4.90;;
37955;SDS011;23776;51.592;7.180;2023-03-19T00:14:28;7.63;;;3.70;;
37955;SDS011;23776;51.592;7.180;2023-03-19T00:16:54;8.90;;;3.67;;
37955;SDS011;23776;51.592;7.180;2023-03-19T00:19:20;10.10;;;3.78;;
37955;SDS011;23776;51.592;7.180;2023-03-19T00:21:46;7.97;;;3.65;;
37955;SDS011;23776;51.592;7.180;2023-03-19T00:24:11;10.32;;;4.63;;
37955;SDS011;23776;51.592;7.180;2023-03-19T00:26:37;8.07;;;4.00;;
37955;SDS011;23776;51.592;7.180;2023-03-19T00:29:03;10.73;;;3.70;;
37955;SDS011;23776;51.592;7.180;2023-03-19T00:31:29;11.68;;;3.67;;
37955;SDS011;23776;51.592;7.180;2023-03-19T00:33:56;7.05;;;3.85;;
37955;SDS011;23776;51.592;7.180;2023-03-19T00:36:23;10.70;;;4.20;;
37955;SDS011;23776;51.592;7.180;2023-03-19T00:38:49;9.05;;;3.55;;
37955;SDS011;23776;51.592;7.180;2023-03-19T00:41:16;10.50;;;4.15;;
37955;SDS011;23776;51.592;7.180;2023-03-19T00:43:43;9.70;;;4.10;;
37955;SDS011;23776;51.592;7.180;2023-03-19T00:46:09;9.38;;;4.15;;
37955;SDS011;23776;51.592;7.180;2023-03-19T00:48:35;12.02;;;4.60;;
37955;SDS011;23776;51.592;7.180;2023-03-19T00:51:01;13.35;;;4.30;;
37955;SDS011;23776;51.592;7.180;2023-03-19T00:53:28;7.28;;;4.22;;
37955;SDS011;23776;51.592;7.180;2023-03-19T00:55:54;9.75;;;4.63;;
37955;SDS011;23776;51.592;7.180;2023-03-19T00:58:20;12.15;;;4.82;;
37955;SDS011;23776;51.592;7.180;2023-03-19T01:00:45;12.73;;;4.88;;
37955;SDS011;23776;51.592;7.180;2023-03-19T01:03:12;8.75;;;4.50;;
37955;SDS011;23776;51.592;7.180;2023-03-19T01:05:38;9.13;;;4.53;;
37955;SDS011;23776;51.592;7.180;2023-03-19T01:08:03;8.80;;;4.53;;
37955;SDS011;23776;51.592;7.180;2023-03-19T01:10:31;10.43;;;4.55;;
37955;SDS011;23776;51.592;7.180;2023-03-19T01:12:58;8.75;;;5.10;;
37955;SDS011;23776;51.592;7.180;2023-03-19T01:15:23;12.32;;;4.50;;
37955;SDS011;23776;51.592;7.180;2023-03-19T01:17:49;8.05;;;4.15;;
37955;SDS011;23776;51.592;7.180;2023-03-19T01:20:14;8.95;;;5.05;;
37955;SDS011;23776;51.592;7.180;2023-03-19T01:22:42;8.68;;;4.75;;
37955;SDS011;23776;51.592;7.180;2023-03-19T01:25:09;9.68;;;4.72;;
37955;SDS011;23776;51.592;7.180;2023-03-19T01:27:36;8.25;;;5.15;;
37955;SDS011;23776;51.592;7.180;2023-03-19T01:30:02;9.35;;;5.15;;
37955;SDS011;23776;51.592;7.180;2023-03-19T01:32:28;10.32;;;5.13;;
37955;SDS011;23776;51.592;7.180;2023-03-19T01:34:54;11.95;;;5.65;;
37955;SDS011;23776;51.592;7.180;2023-03-19T01:37:19;10.80;;;5.45;;
37955;SDS011;23776;51.592;7.180;2023-03-19T01:39:45;8.93;;;4.90;;
37955;SDS011;23776;51.592;7.180;2023-03-19T01:42:11;9.38;;;5.30;;
37955;SDS011;23776;51.592;7.180;2023-03-19T01:44:38;8.32;;;4.85;;
37955;SDS011;23776;51.592;7.180;2023-03-19T01:47:09;8.10;;;5.78;;
37955;SDS011;23776;51.592;7.180;2023-03-19T01:49:52;9.40;;;5.50;;
37955;SDS011;23776;51.592;7.180;2023-03-19T01:52:20;11.45;;;5.82;;
37955;SDS011;23776;51.592;7.180;2023-03-19T01:54:49;12.10;;;5.75;;
37955;SDS011;23776;51.592;7.180;2023-03-19T01:57:16;10.15;;;5.00;;
37955;SDS011;23776;51.592;7.180;2023-03-19T01:59:44;10.07;;;5.13;;
37955;SDS011;23776;51.592;7.180;2023-03-19T02:02:32;11.43;;;6.03;;
37955;SDS011;23776;51.592;7.180;2023-03-19T02:05:00;9.18;;;5.25;;
37955;SDS011;23776;51.592;7.180;2023-03-19T02:07:37;10.00;;;5.30;;
37955;SDS011;23776;51.592;7.180;2023-03-19T02:10:06;9.15;;;5.82;;
37955;SDS011;23776;51.592;7.180;2023-03-19T02:12:34;8.98;;;5.75;;
37955;SDS011;23776;51.592;7.180;2023-03-19T02:14:59;13.93;;;6.32;;
37955;SDS011;23776;51.592;7.180;2023-03-19T02:17:26;9.98;;;5.75;;
37955;SDS011;23776;51.592;7.180;2023-03-19T02:19:56;13.10;;;5.57;;
37955;SDS011;23776;51.592;7.180;2023-03-19T02:22:40;9.02;;;5.28;;
37955;SDS011;23776;51.592;7.180;2023-03-19T02:25:13;9.32;;;5.80;;
37955;SDS011;23776;51.592;7.180;2023-03-19T02:27:48;12.65;;;6.40;;
37955;SDS011;23776;51.592;7.180;2023-03-19T02:30:20;15.65;;;6.28;;
37955;SDS011;23776;51.592;7.180;2023-03-19T02:32:50;12.73;;;6.68;;
37955;SDS011;23776;51.592;7.180;2023-03-19T02:35:16;19.27;;;6.47;;
37955;SDS011;23776;51.592;7.180;2023-03-19T02:37:42;12.63;;;6.30;;
37955;SDS011;23776;51.592;7.180;2023-03-19T02:40:10;11.60;;;6.55;;
37955;SDS011;23776;51.592;7.180;2023-03-19T02:42:40;12.55;;;7.05;;
37955;SDS011;23776;51.592;7.180;2023-03-19T02:45:06;11.57;;;6.40;;
37955;SDS011;23776;51.592;7.180;2023-03-19T02:47:32;11.93;;;6.80;;
37955;SDS011;23776;51.592;7.180;2023-03-19T02:49:58;15.02;;;7.13;;
37955;SDS011;23776;51.592;7.180;2023-03-19T02:52:24;11.82;;;6.97;;
37955;SDS011;23776;51.592;7.180;2023-03-19T02:54:49;13.25;;;7.40;;
37955;SDS011;23776;51.592;7.180;2023-03-19T02:57:15;12.25;;;6.97;;
37955;SDS011;23776;51.592;7.180;2023-03-19T02:59:41;10.70;;;6.95;;
37955;SDS011;23776;51.592;7.180;2023-03-19T03:02:06;14.32;;;6.47;;
37955;SDS011;23776;51.592;7.180;2023-03-19T03:04:32;13.27;;;6.43;;
37955;SDS011;23776;51.592;7.180;2023-03-19T03:06:59;11.48;;;6.68;;
37955;SDS011;23776;51.592;7.180;2023-03-19T03:09:25;12.88;;;7.13;;
37955;SDS011;23776;51.592;7.180;2023-03-19T03:11:51;17.48;;;7.47;;
37955;SDS011;23776;51.592;7.180;2023-03-19T03:14:17;12.93;;;7.30;;
37955;SDS011;23776;51.592;7.180;2023-03-19T03:16:42;13.18;;;7.47;;
37955;SDS011;23776;51.592;7.180;2023-03-19T03:19:08;10.23;;;6.60;;
37955;SDS011;23776;51.592;7.180;2023-03-19T03:21:34;12.05;;;6.65;;
37955;SDS011;23776;51.592;7.180;2023-03-19T03:24:00;12.73;;;6.95;;
37955;SDS011;23776;51.592;7.180;2023-03-19T03:26:25;11.65;;;6.95;;
37955;SDS011;23776;51.592;7.180;2023-03-19T03:28:51;10.35;;;6.63;;
37955;SDS011;23776;51.592;7.180;2023-03-19T03:31:17;12.50;;;6.28;;
37955;SDS011;23776;51.592;7.180;2023-03-19T03:33:43;12.55;;;7.43;;
37955;SDS011;23776;51.592;7.180;2023-03-19T03:36:08;11.18;;;6.80;;
37955;SDS011;23776;51.592;7.180;2023-03-19T03:38:34;12.85;;;6.45;;
37955;SDS011;23776;51.592;7.180;2023-03-19T03:41:00;11.27;;;6.80;;
37955;SDS011;23776;51.592;7.180;2023-03-19T03:43:25;11.75;;;7.15;;
37955;SDS011;23776;51.592;7.180;2023-03-19T03:45:51;14.02;;;6.70;;
37955;SDS011;23776;51.592;7.180;2023-03-19T03:48:17;12.38;;;7.88;;
37955;SDS011;23776;51.592;7.180;2023-03-19T03:50:43;15.30;;;8.70;;
37955;SDS011;23776;51.592;7.180;2023-03-19T03:53:09;16.80;;;8.93;;
37955;SDS011;23776;51.592;7.180;2023-03-19T03:55:37;16.33;;;8.43;;
37955;SDS011;23776;51.592;7.180;2023-03-19T03:58:03;17.00;;;10.77;;
37955;SDS011;23776;51.592;7.180;2023-03-19T04:00:28;20.85;;;12.00;;
37955;SDS011;23776;51.592;7.180;2023-03-19T04:02:54;27.75;;;13.38;;
37955;SDS011;23776;51.592;7.180;2023-03-19T04:05:20;25.10;;;12.70;;
37955;SDS011;23776;51.592;7.180;2023-03-19T04:07:46;19.75;;;9.80;;
37955;SDS011;23776;51.592;7.180;2023-03-19T04:10:12;22.13;;;10.82;;
37955;SDS011;23776;51.592;7.180;2023-03-19T04:12:39;17.15;;;8.88;;
37955;SDS011;23776;51.592;7.180;2023-03-19T04:15:06;16.30;;;9.95;;
37955;SDS011;23776;51.592;7.180;2023-03-19T04:17:33;17.98;;;9.45;;
37955;SDS011;23776;51.592;7.180;2023-03-19T04:19:59;19.33;;;10.60;;
37955;SDS011;23776;51.592;7.180;2023-03-19T04:22:26;20.55;;;10.25;;
37955;SDS011;23776;51.592;7.180;2023-03-19T04:24:51;20.38;;;9.43;;
37955;SDS011;23776;51.592;7.180;2023-03-19T04:27:17;15.60;;;9.02;;
37955;SDS011;23776;51.592;7.180;2023-03-19T04:29:42;17.05;;;8.45;;
37955;SDS011;23776;51.592;7.180;2023-03-19T04:32:08;15.20;;;8.30;;
37955;SDS011;23776;51.592;7.180;2023-03-19T04:34:34;24.00;;;9.07;;
37955;SDS011;23776;51.592;7.180;2023-03-19T04:36:59;19.30;;;9.90;;
37955;SDS011;23776;51.592;7.180;2023-03-19T04:39:25;18.38;;;9.23;;
37955;SDS011;23776;51.592;7.180;2023-03-19T04:41:52;14.02;;;8.45;;
37955;SDS011;23776;51.592;7.180;2023-03-19T04:44:18;16.10;;;8.13;;
37955;SDS011;23776;51.592;7.180;2023-03-19T04:46:43;19.27;;;9.05;;
37955;SDS011;23776;51.592;7.180;2023-03-19T04:49:10;17.42;;;8.50;;
37955;SDS011;23776;51.592;7.180;2023-03-19T04:51:36;15.63;;;8.75;;
37955;SDS011;23776;51.592;7.180;2023-03-19T04:54:02;13.90;;;7.78;;
37955;SDS011;23776;51.592;7.180;2023-03-19T04:56:29;14.23;;;7.38;;
37955;SDS011;23776;51.592;7.180;2023-03-19T04:58:55;15.75;;;7.32;;
37955;SDS011;23776;51.592;7.180;2023-03-19T05:01:20;14.40;;;6.72;;
37955;SDS011;23776;51.592;7.180;2023-03-19T05:03:46;12.23;;;5.95;;
37955;SDS011;23776;51.592;7.180;2023-03-19T05:06:11;10.60;;;5.93;;
37955;SDS011;23776;51.592;7.180;2023-03-19T05:08:37;15.98;;;5.68;;
37955;SDS011;23776;51.592;7.180;2023-03-19T05:11:03;12.85;;;5.10;;
37955;SDS011;23776;51.592;7.180;2023-03-19T05:13:29;7.65;;;4.32;;
37955;SDS011;23776;51.592;7.180;2023-03-19T05:15:54;10.48;;;5.15;;
37955;SDS011;23776;51.592;7.180;2023-03-19T05:18:20;12.43;;;5.53;;
37955;SDS011;23776;51.592;7.180;2023-03-19T05:20:47;12.30;;;5.18;;
37955;SDS011;23776;51.592;7.180;2023-03-19T05:23:13;10.57;;;4.80;;
37955;SDS011;23776;51.592;7.180;2023-03-19T05:25:39;8.48;;;4.40;;
37955;SDS011;23776;51.592;7.180;2023-03-19T05:28:04;8.90;;;4.43;;
37955;SDS011;23776;51.592;7.180;2023-03-19T05:30:32;9.30;;;5.22;;
37955;SDS011;23776;51.592;7.180;2023-03-19T05:32:59;10.90;;;5.30;;
37955;SDS011;23776;51.592;7.180;2023-03-19T05:35:25;11.38;;;3.78;;
37955;SDS011;23776;51.592;7.180;2023-03-19T05:37:52;6.80;;;4.03;;
37955;SDS011;23776;51.592;7.180;2023-03-19T05:40:18;7.35;;;4.38;;
37955;SDS011;23776;51.592;7.180;2023-03-19T05:42:43;13.10;;;4.38;;
37955;SDS011;23776;51.592;7.180;2023-03-19T05:45:09;9.70;;;4.90;;
37955;SDS011;23776;51.592;7.180;2023-03-19T05:47:35;16.48;;;4.63;;
37955;SDS011;23776;51.592;7.180;2023-03-19T05:50:01;11.30;;;4.50;;
37955;SDS011;23776;51.592;7.180;2023-03-19T05:52:27;15.60;;;4.97;;
37955;SDS011;23776;51.592;7.180;2023-03-19T05:54:52;12.45;;;4.50;;
37955;SDS011;23776;51.592;7.180;2023-03-19T05:57:18;13.25;;;4.97;;
37955;SDS011;23776;51.592;7.180;2023-03-19T05:59:44;12.57;;;4.88;;
37955;SDS011;23776;51.592;7.180;2023-03-19T06:02:10;15.02;;;4.50;;
37955;SDS011;23776;51.592;7.180;2023-03-19T06:04:35;13.55;;;4.88;;
37955;SDS011;23776;51.592;7.180;2023-03-19T06:07:01;12.82;;;5.00;;
37955;SDS011;23776;51.592;7.180;2023-03-19T06:09:26;15.15;;;5.10;;
37955;SDS011;23776;51.592;7.180;2023-03-19T06:11:52;9.48;;;5.07;;
37955;SDS011;23776;51.592;7.180;2023-03-19T06:14:18;8.07;;;4.95;;
37955;SDS011;23776;51.592;7.180;2023-03-19T06:16:43;12.95;;;5.68;;
37955;SDS011;23776;51.592;7.180;2023-03-19T06:19:09;11.80;;;6.35;;
37955;SDS011;23776;51.592;7.180;2023-03-19T06:21:35;11.65;;;5.55;;
37955;SDS011;23776;51.592;7.180;2023-03-19T06:24:00;12.77;;;6.03;;
37955;SDS011;23776;51.592;7.180;2023-03-19T06:26:26;7.68;;;5.00;;
37955;SDS011;23776;51.592;7.180;2023-03-19T06:28:52;10.77;;;5.40;;
37955;SDS011;23776;51.592;7.180;2023-03-19T06:31:18;14.95;;;6.30;;
37955;SDS011;23776;51.592;7.180;2023-03-19T06:33:43;9.68;;;5.32;;
37955;SDS011;23776;51.592;7.180;2023-03-19T06:36:09;14.50;;;5.45;;
37955;SDS011;23776;51.592;7.180;2023-03-19T06:38:35;13.05;;;5.25;;
37955;SDS011;23776;51.592;7.180;2023-03-19T06:41:01;9.75;;;5.60;;
37955;SDS011;23776;51.592;7.180;2023-03-19T06:43:27;15.20;;;6.07;;
37955;SDS011;23776;51.592;7.180;2023-03-19T06:45:52;15.43;;;5.93;;
37955;SDS011;23776;51.592;7.180;2023-03-19T06:48:18;11.05;;;6.07;;
37955;SDS011;23776;51.592;7.180;2023-03-19T06:50:44;12.25;;;6.22;;
37955;SDS011;23776;51.592;7.180;2023-03-19T06:53:11;9.85;;;6.30;;
37955;SDS011;23776;51.592;7.180;2023-03-19T06:55:37;11.25;;;6.90;;
37955;SDS011;23776;51.592;7.180;2023-03-19T06:58:04;14.52;;;7.65;;
37955;SDS011;23776;51.592;7.180;2023-03-19T07:00:29;17.00;;;8.48;;
37955;SDS011;23776;51.592;7.180;2023-03-19T07:02:55;16.80;;;8.60;;
37955;SDS011;23776;51.592;7.180;2023-03-19T07:05:21;15.00;;;7.68;;
37955;SDS011;23776;51.592;7.180;2023-03-19T07:07:46;17.15;;;7.82;;
37955;SDS011;23776;51.592;7.180;2023-03-19T07:10:12;16.60;;;7.38;;
37955;SDS011;23776;51.592;7.180;2023-03-19T07:12:38;10.57;;;6.57;;
37955;SDS011;23776;51.592;7.180;2023-03-19T07:15:03;13.77;;;7.55;;
37955;SDS011;23776;51.592;7.180;2023-03-19T07:17:30;20.30;;;8.02;;
37955;SDS011;23776;51.592;7.180;2023-03-19T07:19:56;14.63;;;7.55;;
37955;SDS011;23776;51.592;7.180;2023-03-19T07:22:22;15.65;;;7.93;;
37955;SDS011;23776;51.592;7.180;2023-03-19T07:24:47;13.05;;;7.50;;
37955;SDS011;23776;51.592;7.180;2023-03-19T07:27:13;19.45;;;7.22;;
37955;SDS011;23776;51.592;7.180;2023-03-19T07:29:39;16.45;;;7.32;;
37955;SDS011;23776;51.592;7.180;2023-03-19T07:32:04;11.32;;;5.85;;
37955;SDS011;23776;51.592;7.180;2023-03-19T07:34:30;11.05;;;6.50;;
37955;SDS011;23776;51.592;7.180;2023-03-19T07:36:55;11.98;;;6.75;;
37955;SDS011;23776;51.592;7.180;2023-03-19T07:39:22;12.13;;;6.03;;
37955;SDS011;23776;51.592;7.180;2023-03-19T07:41:47;12.35;;;6.38;;
37955;SDS011;23776;51.592;7.180;2023-03-19T07:44:14;13.32;;;6.50;;
37955;SDS011;23776;51.592;7.180;2023-03-19T07:46:40;10.05;;;6.30;;
37955;SDS011;23776;51.592;7.180;2023-03-19T07:49:07;12.20;;;6.05;;
37955;SDS011;23776;51.592;7.180;2023-03-19T07:51:33;12.50;;;6.57;;
37955;SDS011;23776;51.592;7.180;2023-03-19T07:53:59;16.83;;;7.85;;
37955;SDS011;23776;51.592;7.180;2023-03-19T07:56:25;17.10;;;7.40;;
37955;SDS011;23776;51.592;7.180;2023-03-19T07:58:51;12.77;;;5.78;;
37955;SDS011;23776;51.592;7.180;2023-03-19T08:01:17;12.07;;;6.82;;
37955;SDS011;23776;51.592;7.180;2023-03-19T08:03:43;13.95;;;6.35;;
37955;SDS011;23776;51.592;7.180;2023-03-19T08:06:09;10.90;;;6.38;;
37955;SDS011;23776;51.592;7.180;2023-03-19T08:08:35;11.20;;;6.20;;
37955;SDS011;23776;51.592;7.180;2023-03-19T08:11:01;16.92;;;6.35;;
37955;SDS011;23776;51.592;7.180;2023-03-19T08:13:27;8.43;;;5.70;;
37955;SDS011;23776;51.592;7.180;2023-03-19T08:15:53;11.25;;;6.78;;
37955;SDS011;23776;51.592;7.180;2023-03-19T08:18:20;15.35;;;7.00;;
37955;SDS011;23776;51.592;7.180;2023-03-19T08:20:46;14.93;;;6.53;;
37955;SDS011;23776;51.592;7.180;2023-03-19T08:23:12;11.45;;;6.70;;
37955;SDS011;23776;51.592;7.180;2023-03-19T08:25:38;11.80;;;6.25;;
37955;SDS011;23776;51.592;7.180;2023-03-19T08:28:04;15.15;;;6.82;;
37955;SDS011;23776;51.592;7.180;2023-03-19T08:30:30;13.57;;;6.18;;
37955;SDS011;23776;51.592;7.180;2023-03-19T08:32:56;14.55;;;6.72;;
37955;SDS011;23776;51.592;7.180;2023-03-19T08:35:21;9.38;;;6.75;;
37955;SDS011;23776;51.592;7.180;2023-03-19T08:37:48;11.10;;;7.07;;
37955;SDS011;23776;51.592;7.180;2023-03-19T08:40:13;13.48;;;6.35;;
37955;SDS011;23776;51.592;7.180;2023-03-19T08:42:39;12.20;;;7.00;;
37955;SDS011;23776;51.592;7.180;2023-03-19T08:45:10;14.10;;;6.97;;
37955;SDS011;23776;51.592;7.180;2023-03-19T08:47:37;12.38;;;5.72;;
37955;SDS011;23776;51.592;7.180;2023-03-19T08:50:03;12.45;;;6.60;;
37955;SDS011;23776;51.592;7.180;2023-03-19T08:52:29;9.60;;;5.75;;
37955;SDS011;23776;51.592;7.180;2023-03-19T08:54:55;10.23;;;7.13;;
37955;SDS011;23776;51.592;7.180;2023-03-19T08:57:21;9.73;;;5.93;;
37955;SDS011;23776;51.592;7.180;2023-03-19T08:59:46;13.02;;;6.75;;
37955;SDS011;23776;51.592;7.180;2023-03-19T09:02:12;12.55;;;6.45;;
37955;SDS011;23776;51.592;7.180;2023-03-19T09:04:41;10.30;;;5.03;;
37955;SDS011;23776;51.592;7.180;2023-03-19T09:07:07;12.23;;;6.32;;
37955;SDS011;23776;51.592;7.180;2023-03-19T09:09:37;17.00;;;7.15;;
37955;SDS011;23776;51.592;7.180;2023-03-19T09:12:03;10.20;;;6.32;;
37955;SDS011;23776;51.592;7.180;2023-03-19T09:14:31;10.35;;;6.50;;
37955;SDS011;23776;51.592;7.180;2023-03-19T09:16:57;8.90;;;5.80;;
37955;SDS011;23776;51.592;7.180;2023-03-19T09:19:22;11.55;;;5.90;;
37955;SDS011;23776;51.592;7.180;2023-03-19T09:21:48;9.07;;;5.70;;
37955;SDS011;23776;51.592;7.180;2023-03-19T09:24:14;11.15;;;5.85;;
37955;SDS011;23776;51.592;7.180;2023-03-19T09:26:40;12.48;;;6.43;;
37955;SDS011;23776;51.592;7.180;2023-03-19T09:29:06;8.48;;;5.72;;
37955;SDS011;23776;51.592;7.180;2023-03-19T09:31:33;10.43;;;5.47;;
37955;SDS011;23776;51.592;7.180;2023-03-19T09:33:58;9.75;;;5.55;;
37955;SDS011;23776;51.592;7.180;2023-03-19T09:36:24;9.70;;;5.88;;
37955;SDS011;23776;51.592;7.180;2023-03-19T09:38:50;8.13;;;5.53;;
37955;SDS011;23776;51.592;7.180;2023-03-19T09:44:04;10.75;;;5.88;;
37955;SDS011;23776;51.592;7.180;2023-03-19T09:52:27;10.45;;;5.60;;
37955;SDS011;23776;51.592;7.180;2023-03-19T09:54:49;13.88;;;6.18;;
37955;SDS011;23776;51.592;7.180;2023-03-19T09:57:17;11.85;;;6.53;;
37955;SDS011;23776;51.592;7.180;2023-03-19T09:59:43;14.88;;;5.78;;
37955;SDS011;23776;51.592;7.180;2023-03-19T10:07:36;12.95;;;6.13;;
37955;SDS011;23776;51.592;7.180;2023-03-19T10:13:02;10.10;;;5.85;;
37955;SDS011;23776;51.592;7.180;2023-03-19T10:15:41;10.38;;;5.50;;
37955;SDS011;23776;51.592;7.180;2023-03-19T10:18:10;7.68;;;5.20;;
37955;SDS011;23776;51.592;7.180;2023-03-19T10:20:51;8.23;;;4.45;;
37955;SDS011;23776;51.592;7.180;2023-03-19T10:25:58;8.10;;;4.88;;
37955;SDS011;23776;51.592;7.180;2023-03-19T10:28:27;9.25;;;5.53;;
37955;SDS011;23776;51.592;7.180;2023-03-19T10:33:25;7.72;;;5.07;;
37955;SDS011;23776;51.592;7.180;2023-03-19T10:36:13;8.20;;;4.80;;
37955;SDS011;23776;51.592;7.180;2023-03-19T10:38:41;8.10;;;4.90;;
37955;SDS011;23776;51.592;7.180;2023-03-19T10:44:49;8.02;;;4.82;;
37955;SDS011;23776;51.592;7.180;2023-03-19T10:46:59;9.73;;;5.35;;
37955;SDS011;23776;51.592;7.180;2023-03-19T10:49:35;6.47;;;4.22;;
37955;SDS011;23776;51.592;7.180;2023-03-19T10:52:01;9.10;;;4.40;;
37955;SDS011;23776;51.592;7.180;2023-03-19T10:54:26;5.90;;;4.25;;
37955;SDS011;23776;51.592;7.180;2023-03-19T10:56:54;8.10;;;4.63;;
37955;SDS011;23776;51.592;7.180;2023-03-19T10:59:22;6.10;;;4.40;;
37955;SDS011;23776;51.592;7.180;2023-03-19T11:01:54;6.13;;;4.63;;
37955;SDS011;23776;51.592;7.180;2023-03-19T11:04:21;6.45;;;3.90;;
37955;SDS011;23776;51.592;7.180;2023-03-19T11:06:48;6.82;;;3.78;;
37955;SDS011;23776;51.592;7.180;2023-03-19T11:09:34;8.60;;;4.32;;
37955;SDS011;23776;51.592;7.180;2023-03-19T11:14:37;6.75;;;4.82;;
37955;SDS011;23776;51.592;7.180;2023-03-19T11:19:52;6.75;;;4.80;;
37955;SDS011;23776;51.592;7.180;2023-03-19T11:30:57;5.53;;;4.10;;
37955;SDS011;23776;51.592;7.180;2023-03-19T11:35:56;4.28;;;3.30;;
37955;SDS011;23776;51.592;7.180;2023-03-19T11:41:12;6.03;;;3.58;;
37955;SDS011;23776;51.592;7.180;2023-03-19T11:51:56;4.93;;;3.00;;
37955;SDS011;23776;51.592;7.180;2023-03-19T11:54:34;5.53;;;2.85;;
37955;SDS011;23776;51.592;7.180;2023-03-19T12:00:12;6.05;;;2.67;;
37955;SDS011;23776;51.592;7.180;2023-03-19T12:06:05;9.52;;;4.20;;
37955;SDS011;23776;51.592;7.180;2023-03-19T12:08:58;7.25;;;4.88;;
37955;SDS011;23776;51.592;7.180;2023-03-19T12:11:40;10.75;;;5.18;;
37955;SDS011;23776;51.592;7.180;2023-03-19T12:14:25;5.00;;;2.40;;
37955;SDS011;23776;51.592;7.180;2023-03-19T12:17:33;4.03;;;2.35;;
37955;SDS011;23776;51.592;7.180;2023-03-19T12:23:13;6.60;;;2.83;;
37955;SDS011;23776;51.592;7.180;2023-03-19T12:26:07;6.88;;;2.72;;
37955;SDS011;23776;51.592;7.180;2023-03-19T12:28:46;7.00;;;3.50;;
37955;SDS011;23776;51.592;7.180;2023-03-19T12:31:40;6.32;;;4.05;;
37955;SDS011;23776;51.592;7.180;2023-03-19T12:36:45;8.27;;;5.03;;
37955;SDS011;23776;51.592;7.180;2023-03-19T12:41:44;11.52;;;6.18;;
37955;SDS011;23776;51.592;7.180;2023-03-19T12:49:22;11.52;;;5.68;;
37955;SDS011;23776;51.592;7.180;2023-03-19T12:51:56;8.13;;;5.57;;
37955;SDS011;23776;51.592;7.180;2023-03-19T12:54:38;9.57;;;5.05;;
37955;SDS011;23776;51.592;7.180;2023-03-19T12:57:20;6.80;;;4.07;;
37955;SDS011;23776;51.592;7.180;2023-03-19T13:00:04;6.53;;;4.07;;
37955;SDS011;23776;51.592;7.180;2023-03-19T13:02:37;6.75;;;4.15;;
37955;SDS011;23776;51.592;7.180;2023-03-19T13:05:20;5.90;;;3.83;;
37955;SDS011;23776;51.592;7.180;2023-03-19T13:10:43;8.60;;;4.63;;
37955;SDS011;23776;51.592;7.180;2023-03-19T13:13:56;10.32;;;5.47;;
37955;SDS011;23776;51.592;7.180;2023-03-19T13:15:57;11.02;;;5.35;;
37955;SDS011;23776;51.592;7.180;2023-03-19T13:18:34;8.50;;;5.72;;
37955;SDS011;23776;51.592;7.180;2023-03-19T13:23:59;12.25;;;6.10;;
37955;SDS011;23776;51.592;7.180;2023-03-19T13:26:45;14.27;;;7.45;;
37955;SDS011;23776;51.592;7.180;2023-03-19T13:29:22;12.43;;;6.88;;
37955;SDS011;23776;51.592;7.180;2023-03-19T13:31:50;10.50;;;6.15;;
37955;SDS011;23776;51.592;7.180;2023-03-19T13:37:30;9.85;;;6.72;;
37955;SDS011;23776;51.592;7.180;2023-03-19T13:39:45;13.15;;;7.43;;
37955;SDS011;23776;51.592;7.180;2023-03-19T13:44:47;13.55;;;7.07;;
37955;SDS011;23776;51.592;7.180;2023-03-19T13:50:53;14.45;;;7.68;;
37955;SDS011;23776;51.592;7.180;2023-03-19T13:52:53;14.52;;;6.85;;
37955;SDS011;23776;51.592;7.180;2023-03-19T13:56:11;13.77;;;7.50;;
37955;SDS011;23776;51.592;7.180;2023-03-19T13:58:43;12.90;;;7.13;;
37955;SDS011;23776;51.592;7.180;2023-03-19T14:04:00;15.13;;;6.88;;
37955;SDS011;23776;51.592;7.180;2023-03-19T14:06:43;11.98;;;6.72;;
37955;SDS011;23776;51.592;7.180;2023-03-19T14:09:28;13.88;;;6.75;;
37955;SDS011;23776;51.592;7.180;2023-03-19T14:14:54;11.10;;;5.57;;
37955;SDS011;23776;51.592;7.180;2023-03-19T14:17:31;8.05;;;5.03;;
37955;SDS011;23776;51.592;7.180;2023-03-19T14:22:52;6.65;;;4.47;;
37955;SDS011;23776;51.592;7.180;2023-03-19T14:28:32;4.03;;;2.97;;
37955;SDS011;23776;51.592;7.180;2023-03-19T14:34:19;5.68;;;3.38;;
37955;SDS011;23776;51.592;7.180;2023-03-19T14:36:53;10.57;;;4.50;;
37955;SDS011;23776;51.592;7.180;2023-03-19T14:39:39;7.40;;;4.53;;
37955;SDS011;23776;51.592;7.180;2023-03-19T14:42:10;8.30;;;4.47;;
37955;SDS011;23776;51.592;7.180;2023-03-19T14:44:50;18.50;;;5.18;;
37955;SDS011;23776;51.592;7.180;2023-03-19T14:47:34;8.75;;;4.30;;
37955;SDS011;23776;51.592;7.180;2023-03-19T14:52:57;9.35;;;5.63;;
37955;SDS011;23776;51.592;7.180;2023-03-19T14:55:33;10.48;;;5.10;;
37955;SDS011;23776;51.592;7.180;2023-03-19T14:58:01;10.25;;;5.05;;
37955;SDS011;23776;51.592;7.180;2023-03-19T15:00:27;8.00;;;4.68;;
37955;SDS011;23776;51.592;7.180;2023-03-19T15:02:53;10.15;;;5.00;;
37955;SDS011;23776;51.592;7.180;2023-03-19T15:05:21;7.03;;;4.78;;
37955;SDS011;23776;51.592;7.180;2023-03-19T15:08:03;8.70;;;5.43;;
37955;SDS011;23776;51.592;7.180;2023-03-19T15:10:38;6.85;;;4.72;;
37955;SDS011;23776;51.592;7.180;2023-03-19T15:16:27;9.18;;;5.57;;
37955;SDS011;23776;51.592;7.180;2023-03-19T15:18:57;13.75;;;7.15;;
37955;SDS011;23776;51.592;7.180;2023-03-19T15:21:24;9.65;;;6.30;;
37955;SDS011;23776;51.592;7.180;2023-03-19T15:23:49;7.88;;;4.68;;
37955;SDS011;23776;51.592;7.180;2023-03-19T15:26:15;8.98;;;5.05;;
37955;SDS011;23776;51.592;7.180;2023-03-19T15:28:54;7.10;;;4.72;;
37955;SDS011;23776;51.592;7.180;2023-03-19T15:31:21;13.75;;;6.45;;
37955;SDS011;23776;51.592;7.180;2023-03-19T15:33:47;11.82;;;7.93;;
37955;SDS011;23776;51.592;7.180;2023-03-19T15:36:15;12.57;;;7.20;;
37955;SDS011;23776;51.592;7.180;2023-03-19T15:38:53;15.07;;;6.65;;
37955;SDS011;23776;51.592;7.180;2023-03-19T15:41:28;7.47;;;4.68;;
37955;SDS011;23776;51.592;7.180;2023-03-19T15:43:56;10.30;;;4.90;;
37955;SDS011;23776;51.592;7.180;2023-03-19T15:46:26;7.95;;;4.90;;
37955;SDS011;23776;51.592;7.180;2023-03-19T15:51:23;7.97;;;3.95;;
37955;SDS011;23776;51.592;7.180;2023-03-19T15:53:51;9.95;;;4.78;;
37955;SDS011;23776;51.592;7.180;2023-03-19T15:56:17;8.43;;;3.70;;
37955;SDS011;23776;51.592;7.180;2023-03-19T15:58:45;12.80;;;6.72;;
37955;SDS011;23776;51.592;7.180;2023-03-19T16:01:14;8.45;;;4.25;;
37955;SDS011;23776;51.592;7.180;2023-03-19T16:06:30;10.23;;;4.78;;
37955;SDS011;23776;51.592;7.180;2023-03-19T16:09:12;8.27;;;4.03;;
37955;SDS011;23776;51.592;7.180;2023-03-19T16:11:50;8.15;;;4.03;;
37955;SDS011;23776;51.592;7.180;2023-03-19T16:14:59;11.25;;;3.97;;
37955;SDS011;23776;51.592;7.180;2023-03-19T16:17:11;6.85;;;3.85;;
37955;SDS011;23776;51.592;7.180;2023-03-19T16:19:49;9.52;;;4.65;;
37955;SDS011;23776;51.592;7.180;2023-03-19T16:24:48;10.93;;;4.72;;
37955;SDS011;23776;51.592;7.180;2023-03-19T16:27:15;7.30;;;4.22;;
37955;SDS011;23776;51.592;7.180;2023-03-19T16:29:44;7.88;;;3.55;;
37955;SDS011;23776;51.592;7.180;2023-03-19T16:32:22;7.70;;;4.05;;
37955;SDS011;23776;51.592;7.180;2023-03-19T16:34:57;7.28;;;3.78;;
37955;SDS011;23776;51.592;7.180;2023-03-19T16:42:43;8.30;;;3.60;;
37955;SDS011;23776;51.592;7.180;2023-03-19T16:47:39;5.57;;;3.10;;
37955;SDS011;23776;51.592;7.180;2023-03-19T16:50:05;5.10;;;2.97;;
37955;SDS011;23776;51.592;7.180;2023-03-19T16:52:31;4.90;;;2.92;;